sensor_id;sensor_type;location;lat;lon;timestamp;P1;durP1;ratioP1;P2;durP2;ratioP2
47796;SDS011;33558;50.922;14.068;2023-08-12T00:16:09;8.05;;;5.55;;
47796;SDS011;33558;50.922;14.068;2023-08-12T00:18:37;6.30;;;4.70;;
47796;SDS011;33558;50.922;14.068;2023-08-12T01:19:54;6.65;;;5.13;;
47796;SDS011;33558;50.922;14.068;2023-08-12T01:22:40;8.05;;;5.25;;
47796;SDS011;33558;50.922;14.068;2023-08-12T01:25:10;8.85;;;5.43;;
47796;SDS011;33558;50.922;14.068;2023-08-12T01:27:38;7.30;;;5.70;;
47796;SDS011;33558;50.922;14.068;2023-08-12T02:10:47;8.27;;;5.72;;
47796;SDS011;33558;50.922;14.068;2023-08-12T02:23:54;10.93;;;6.05;;
47796;SDS011;33558;50.922;14.068;2023-08-12T02:34:44;5.38;;;4.85;;
47796;SDS011;33558;50.922;14.068;2023-08-12T03:31:36;7.18;;;5.18;;
47796;SDS011;33558;50.922;14.068;2023-08-12T03:34:06;6.18;;;5.57;;
47796;SDS011;33558;50.922;14.068;2023-08-12T03:39:57;7.78;;;5.60;;
47796;SDS011;33558;50.922;14.068;2023-08-12T05:22:28;7.57;;;5.45;;
47796;SDS011;33558;50.922;14.068;2023-08-12T05:25:02;8.93;;;6.03;;
47796;SDS011;33558;50.922;14.068;2023-08-12T05:35:14;5.82;;;4.97;;
47796;SDS011;33558;50.922;14.068;2023-08-12T05:59:07;7.05;;;5.22;;
47796;SDS011;33558;50.922;14.068;2023-08-12T08:43:11;4.10;;;3.42;;
47796;SDS011;33558;50.922;14.068;2023-08-12T09:06:40;4.03;;;2.70;;
47796;SDS011;33558;50.922;14.068;2023-08-12T09:19:36;3.72;;;3.15;;
47796;SDS011;33558;50.922;14.068;2023-08-12T09:22:03;5.50;;;3.35;;
47796;SDS011;33558;50.922;14.068;2023-08-12T09:24:33;3.60;;;3.30;;
47796;SDS011;33558;50.922;14.068;2023-08-12T09:27:00;4.32;;;3.10;;
47796;SDS011;33558;50.922;14.068;2023-08-12T09:29:29;5.10;;;3.80;;
47796;SDS011;33558;50.922;14.068;2023-08-12T09:34:48;9.70;;;3.50;;
47796;SDS011;33558;50.922;14.068;2023-08-12T09:50:10;2.60;;;2.08;;
47796;SDS011;33558;50.922;14.068;2023-08-12T10:00:49;6.28;;;1.80;;
47796;SDS011;33558;50.922;14.068;2023-08-12T10:03:18;3.65;;;1.98;;
47796;SDS011;33558;50.922;14.068;2023-08-12T10:05:52;3.63;;;1.80;;
47796;SDS011;33558;50.922;14.068;2023-08-12T10:11:45;4.45;;;1.80;;
47796;SDS011;33558;50.922;14.068;2023-08-12T10:14:18;2.35;;;1.83;;
47796;SDS011;33558;50.922;14.068;2023-08-12T10:16:59;2.85;;;1.90;;
47796;SDS011;33558;50.922;14.068;2023-08-12T10:19:35;4.28;;;1.80;;
47796;SDS011;33558;50.922;14.068;2023-08-12T10:22:06;4.18;;;1.90;;
47796;SDS011;33558;50.922;14.068;2023-08-12T10:24:47;7.57;;;1.92;;
47796;SDS011;33558;50.922;14.068;2023-08-12T10:27:16;3.17;;;1.73;;
47796;SDS011;33558;50.922;14.068;2023-08-12T10:30:02;2.55;;;1.70;;
47796;SDS011;33558;50.922;14.068;2023-08-12T10:32:34;2.45;;;1.40;;
47796;SDS011;33558;50.922;14.068;2023-08-12T10:35:07;2.42;;;1.63;;
47796;SDS011;33558;50.922;14.068;2023-08-12T10:37:58;3.13;;;1.85;;
47796;SDS011;33558;50.922;14.068;2023-08-12T10:40:27;6.20;;;1.73;;
47796;SDS011;33558;50.922;14.068;2023-08-12T10:42:57;3.53;;;1.85;;
47796;SDS011;33558;50.922;14.068;2023-08-12T10:45:40;2.00;;;1.63;;
47796;SDS011;33558;50.922;14.068;2023-08-12T10:48:09;3.05;;;1.80;;
47796;SDS011;33558;50.922;14.068;2023-08-12T10:50:55;3.25;;;1.60;;
47796;SDS011;33558;50.922;14.068;2023-08-12T10:53:32;2.20;;;1.63;;
47796;SDS011;33558;50.922;14.068;2023-08-12T10:56:02;4.82;;;2.33;;
47796;SDS011;33558;50.922;14.068;2023-08-12T10:58:44;3.40;;;1.90;;
47796;SDS011;33558;50.922;14.068;2023-08-12T11:01:13;3.05;;;1.98;;
47796;SDS011;33558;50.922;14.068;2023-08-12T11:03:48;3.17;;;1.75;;
47796;SDS011;33558;50.922;14.068;2023-08-12T11:06:23;2.20;;;1.75;;
47796;SDS011;33558;50.922;14.068;2023-08-12T11:08:59;2.78;;;1.58;;
47796;SDS011;33558;50.922;14.068;2023-08-12T11:11:27;4.10;;;1.83;;
47796;SDS011;33558;50.922;14.068;2023-08-12T11:13:57;2.17;;;1.60;;
47796;SDS011;33558;50.922;14.068;2023-08-12T11:16:31;2.60;;;1.70;;
47796;SDS011;33558;50.922;14.068;2023-08-12T11:19:02;5.32;;;2.00;;
47796;SDS011;33558;50.922;14.068;2023-08-12T11:21:30;3.05;;;1.98;;
47796;SDS011;33558;50.922;14.068;2023-08-12T11:24:14;3.75;;;1.88;;
47796;SDS011;33558;50.922;14.068;2023-08-12T11:26:47;2.20;;;1.73;;
47796;SDS011;33558;50.922;14.068;2023-08-12T11:29:16;3.50;;;2.15;;
47796;SDS011;33558;50.922;14.068;2023-08-12T11:31:46;2.92;;;1.95;;
47796;SDS011;33558;50.922;14.068;2023-08-12T11:34:15;3.97;;;1.77;;
47796;SDS011;33558;50.922;14.068;2023-08-12T11:36:53;2.22;;;1.80;;
47796;SDS011;33558;50.922;14.068;2023-08-12T11:39:23;4.63;;;2.10;;
47796;SDS011;33558;50.922;14.068;2023-08-12T11:41:58;3.28;;;2.00;;
47796;SDS011;33558;50.922;14.068;2023-08-12T11:44:37;3.35;;;1.77;;
47796;SDS011;33558;50.922;14.068;2023-08-12T11:47:15;3.22;;;2.03;;
47796;SDS011;33558;50.922;14.068;2023-08-12T11:49:52;2.80;;;1.90;;
47796;SDS011;33558;50.922;14.068;2023-08-12T11:52:26;3.97;;;2.40;;
47796;SDS011;33558;50.922;14.068;2023-08-12T11:55:08;3.75;;;2.15;;
47796;SDS011;33558;50.922;14.068;2023-08-12T11:57:51;2.80;;;2.10;;
47796;SDS011;33558;50.922;14.068;2023-08-12T12:00:27;3.47;;;1.85;;
47796;SDS011;33558;50.922;14.068;2023-08-12T12:03:06;3.20;;;1.85;;
47796;SDS011;33558;50.922;14.068;2023-08-12T12:05:47;2.22;;;1.77;;
47796;SDS011;33558;50.922;14.068;2023-08-12T12:08:31;2.70;;;1.88;;
47796;SDS011;33558;50.922;14.068;2023-08-12T12:11:11;3.97;;;1.70;;
47796;SDS011;33558;50.922;14.068;2023-08-12T12:13:41;4.15;;;2.00;;
47796;SDS011;33558;50.922;14.068;2023-08-12T12:16:13;3.55;;;2.00;;
47796;SDS011;33558;50.922;14.068;2023-08-12T12:18:43;4.20;;;2.30;;
47796;SDS011;33558;50.922;14.068;2023-08-12T12:21:20;5.72;;;2.25;;
47796;SDS011;33558;50.922;14.068;2023-08-12T12:23:52;2.28;;;2.00;;
47796;SDS011;33558;50.922;14.068;2023-08-12T12:26:26;3.78;;;1.98;;
47796;SDS011;33558;50.922;14.068;2023-08-12T12:28:54;4.35;;;2.15;;
47796;SDS011;33558;50.922;14.068;2023-08-12T12:31:28;3.22;;;2.17;;
47796;SDS011;33558;50.922;14.068;2023-08-12T12:34:02;2.47;;;1.80;;
47796;SDS011;33558;50.922;14.068;2023-08-12T12:36:31;5.40;;;2.22;;
47796;SDS011;33558;50.922;14.068;2023-08-12T12:38:57;2.88;;;1.70;;
47796;SDS011;33558;50.922;14.068;2023-08-12T12:41:26;2.92;;;1.77;;
47796;SDS011;33558;50.922;14.068;2023-08-12T12:43:53;4.10;;;1.92;;
47796;SDS011;33558;50.922;14.068;2023-08-12T12:46:19;4.85;;;2.00;;
47796;SDS011;33558;50.922;14.068;2023-08-12T12:48:46;3.40;;;2.00;;
47796;SDS011;33558;50.922;14.068;2023-08-12T12:51:13;3.90;;;2.05;;
47796;SDS011;33558;50.922;14.068;2023-08-12T12:53:40;4.32;;;1.83;;
47796;SDS011;33558;50.922;14.068;2023-08-12T12:56:07;2.42;;;1.83;;
47796;SDS011;33558;50.922;14.068;2023-08-12T12:58:36;3.22;;;2.00;;
47796;SDS011;33558;50.922;14.068;2023-08-12T13:01:04;3.42;;;2.17;;
47796;SDS011;33558;50.922;14.068;2023-08-12T13:03:31;3.03;;;1.83;;
47796;SDS011;33558;50.922;14.068;2023-08-12T13:05:58;2.33;;;1.90;;
47796;SDS011;33558;50.922;14.068;2023-08-12T13:08:26;4.80;;;2.15;;
47796;SDS011;33558;50.922;14.068;2023-08-12T13:10:53;4.15;;;2.10;;
47796;SDS011;33558;50.922;14.068;2023-08-12T13:13:19;6.07;;;2.10;;
47796;SDS011;33558;50.922;14.068;2023-08-12T13:15:48;3.05;;;1.80;;
47796;SDS011;33558;50.922;14.068;2023-08-12T13:18:14;3.90;;;1.50;;
47796;SDS011;33558;50.922;14.068;2023-08-12T13:20:41;2.95;;;1.80;;
47796;SDS011;33558;50.922;14.068;2023-08-12T13:23:08;2.22;;;1.70;;
47796;SDS011;33558;50.922;14.068;2023-08-12T13:25:35;2.35;;;1.50;;
47796;SDS011;33558;50.922;14.068;2023-08-12T13:28:02;3.30;;;1.45;;
47796;SDS011;33558;50.922;14.068;2023-08-12T13:30:30;3.95;;;1.52;;
47796;SDS011;33558;50.922;14.068;2023-08-12T13:32:58;4.57;;;1.75;;
47796;SDS011;33558;50.922;14.068;2023-08-12T13:35:25;2.45;;;1.50;;
47796;SDS011;33558;50.922;14.068;2023-08-12T13:37:52;1.92;;;1.73;;
47796;SDS011;33558;50.922;14.068;2023-08-12T13:40:18;2.85;;;1.60;;
47796;SDS011;33558;50.922;14.068;2023-08-12T13:42:45;2.60;;;1.52;;
47796;SDS011;33558;50.922;14.068;2023-08-12T13:45:13;3.47;;;1.75;;
47796;SDS011;33558;50.922;14.068;2023-08-12T13:47:39;1.83;;;1.50;;
47796;SDS011;33558;50.922;14.068;2023-08-12T13:50:08;5.13;;;1.60;;
47796;SDS011;33558;50.922;14.068;2023-08-12T13:52:35;3.50;;;1.75;;
47796;SDS011;33558;50.922;14.068;2023-08-12T13:55:02;1.83;;;1.55;;
47796;SDS011;33558;50.922;14.068;2023-08-12T13:57:29;2.90;;;1.70;;
47796;SDS011;33558;50.922;14.068;2023-08-12T13:59:56;2.50;;;1.90;;
47796;SDS011;33558;50.922;14.068;2023-08-12T14:02:24;3.97;;;1.83;;
47796;SDS011;33558;50.922;14.068;2023-08-12T14:04:50;2.92;;;2.55;;
47796;SDS011;33558;50.922;14.068;2023-08-12T14:07:19;4.22;;;1.70;;
47796;SDS011;33558;50.922;14.068;2023-08-12T14:09:46;2.67;;;1.80;;
47796;SDS011;33558;50.922;14.068;2023-08-12T14:12:13;2.13;;;1.67;;
47796;SDS011;33558;50.922;14.068;2023-08-12T14:14:40;2.83;;;2.05;;
47796;SDS011;33558;50.922;14.068;2023-08-12T14:17:07;2.40;;;1.90;;
47796;SDS011;33558;50.922;14.068;2023-08-12T14:19:38;4.57;;;2.28;;
47796;SDS011;33558;50.922;14.068;2023-08-12T14:22:05;4.53;;;3.55;;
47796;SDS011;33558;50.922;14.068;2023-08-12T14:24:33;5.15;;;2.47;;
47796;SDS011;33558;50.922;14.068;2023-08-12T14:27:00;5.10;;;3.28;;
47796;SDS011;33558;50.922;14.068;2023-08-12T14:29:28;4.28;;;3.45;;
47796;SDS011;33558;50.922;14.068;2023-08-12T14:31:59;3.67;;;2.70;;
47796;SDS011;33558;50.922;14.068;2023-08-12T14:34:25;6.47;;;3.10;;
47796;SDS011;33558;50.922;14.068;2023-08-12T14:36:52;3.00;;;2.10;;
47796;SDS011;33558;50.922;14.068;2023-08-12T14:39:19;2.67;;;1.85;;
47796;SDS011;33558;50.922;14.068;2023-08-12T14:41:48;3.75;;;2.30;;
47796;SDS011;33558;50.922;14.068;2023-08-12T14:44:15;2.65;;;1.70;;
47796;SDS011;33558;50.922;14.068;2023-08-12T14:46:41;2.17;;;1.83;;
47796;SDS011;33558;50.922;14.068;2023-08-12T14:49:08;5.03;;;3.30;;
47796;SDS011;33558;50.922;14.068;2023-08-12T14:51:35;4.28;;;2.17;;
47796;SDS011;33558;50.922;14.068;2023-08-12T14:54:02;4.45;;;2.17;;
47796;SDS011;33558;50.922;14.068;2023-08-12T14:56:29;4.03;;;1.75;;
47796;SDS011;33558;50.922;14.068;2023-08-12T14:58:57;3.00;;;2.03;;
47796;SDS011;33558;50.922;14.068;2023-08-12T15:01:24;2.78;;;1.98;;
47796;SDS011;33558;50.922;14.068;2023-08-12T15:03:53;3.75;;;2.08;;
47796;SDS011;33558;50.922;14.068;2023-08-12T15:06:21;3.10;;;1.90;;
47796;SDS011;33558;50.922;14.068;2023-08-12T15:08:48;5.30;;;2.08;;
47796;SDS011;33558;50.922;14.068;2023-08-12T15:11:15;2.75;;;1.60;;
47796;SDS011;33558;50.922;14.068;2023-08-12T15:13:42;2.85;;;1.67;;
47796;SDS011;33558;50.922;14.068;2023-08-12T15:16:10;3.55;;;1.92;;
47796;SDS011;33558;50.922;14.068;2023-08-12T15:18:37;3.13;;;1.70;;
47796;SDS011;33558;50.922;14.068;2023-08-12T15:21:05;4.50;;;2.00;;
47796;SDS011;33558;50.922;14.068;2023-08-12T15:23:34;4.50;;;1.80;;
47796;SDS011;33558;50.922;14.068;2023-08-12T15:26:01;2.60;;;1.60;;
47796;SDS011;33558;50.922;14.068;2023-08-12T15:28:29;2.78;;;1.50;;
47796;SDS011;33558;50.922;14.068;2023-08-12T15:30:56;1.58;;;1.48;;
47796;SDS011;33558;50.922;14.068;2023-08-12T15:33:25;2.30;;;2.00;;
47796;SDS011;33558;50.922;14.068;2023-08-12T15:35:52;6.68;;;2.00;;
47796;SDS011;33558;50.922;14.068;2023-08-12T15:38:19;4.53;;;2.30;;
47796;SDS011;33558;50.922;14.068;2023-08-12T15:40:45;2.92;;;1.73;;
47796;SDS011;33558;50.922;14.068;2023-08-12T15:43:12;4.75;;;1.80;;
47796;SDS011;33558;50.922;14.068;2023-08-12T15:45:40;1.70;;;1.60;;
47796;SDS011;33558;50.922;14.068;2023-08-12T15:48:08;2.70;;;1.83;;
47796;SDS011;33558;50.922;14.068;2023-08-12T15:50:37;4.45;;;1.85;;
47796;SDS011;33558;50.922;14.068;2023-08-12T15:53:04;2.50;;;1.60;;
47796;SDS011;33558;50.922;14.068;2023-08-12T15:55:31;6.93;;;1.90;;
47796;SDS011;33558;50.922;14.068;2023-08-12T15:57:58;2.85;;;1.95;;
47796;SDS011;33558;50.922;14.068;2023-08-12T16:00:25;4.18;;;2.30;;
47796;SDS011;33558;50.922;14.068;2023-08-12T16:02:53;2.65;;;1.88;;
47796;SDS011;33558;50.922;14.068;2023-08-12T16:05:24;3.28;;;1.90;;
47796;SDS011;33558;50.922;14.068;2023-08-12T16:07:53;4.07;;;1.70;;
47796;SDS011;33558;50.922;14.068;2023-08-12T16:10:20;4.97;;;2.05;;
47796;SDS011;33558;50.922;14.068;2023-08-12T16:12:48;5.13;;;2.13;;
47796;SDS011;33558;50.922;14.068;2023-08-12T16:15:15;5.85;;;2.00;;
47796;SDS011;33558;50.922;14.068;2023-08-12T16:17:42;6.80;;;2.35;;
47796;SDS011;33558;50.922;14.068;2023-08-12T16:20:09;3.75;;;2.13;;
47796;SDS011;33558;50.922;14.068;2023-08-12T16:22:37;2.53;;;1.80;;
47796;SDS011;33558;50.922;14.068;2023-08-12T16:25:06;4.90;;;2.03;;
47796;SDS011;33558;50.922;14.068;2023-08-12T16:27:34;7.00;;;2.10;;
47796;SDS011;33558;50.922;14.068;2023-08-12T16:30:01;6.05;;;2.30;;
47796;SDS011;33558;50.922;14.068;2023-08-12T16:32:27;4.63;;;2.20;;
47796;SDS011;33558;50.922;14.068;2023-08-12T16:34:54;3.70;;;2.05;;
47796;SDS011;33558;50.922;14.068;2023-08-12T16:37:21;3.88;;;2.05;;
47796;SDS011;33558;50.922;14.068;2023-08-12T16:39:49;4.75;;;1.83;;
47796;SDS011;33558;50.922;14.068;2023-08-12T16:42:18;2.28;;;1.88;;
47796;SDS011;33558;50.922;14.068;2023-08-12T16:44:44;5.50;;;2.10;;
47796;SDS011;33558;50.922;14.068;2023-08-12T16:47:11;3.97;;;2.40;;
47796;SDS011;33558;50.922;14.068;2023-08-12T16:49:38;3.05;;;2.00;;
47796;SDS011;33558;50.922;14.068;2023-08-12T16:52:05;3.47;;;2.20;;
47796;SDS011;33558;50.922;14.068;2023-08-12T16:54:32;2.92;;;2.13;;
47796;SDS011;33558;50.922;14.068;2023-08-12T16:56:59;2.75;;;2.38;;
47796;SDS011;33558;50.922;14.068;2023-08-12T16:59:28;3.50;;;1.77;;
47796;SDS011;33558;50.922;14.068;2023-08-12T17:01:55;3.88;;;2.50;;
47796;SDS011;33558;50.922;14.068;2023-08-12T17:04:22;6.50;;;2.88;;
47796;SDS011;33558;50.922;14.068;2023-08-12T17:06:49;4.63;;;2.38;;
47796;SDS011;33558;50.922;14.068;2023-08-12T17:09:17;3.75;;;2.45;;
47796;SDS011;33558;50.922;14.068;2023-08-12T17:11:44;3.28;;;2.25;;
47796;SDS011;33558;50.922;14.068;2023-08-12T17:14:11;4.03;;;2.63;;
47796;SDS011;33558;50.922;14.068;2023-08-12T17:16:40;5.93;;;2.55;;
47796;SDS011;33558;50.922;14.068;2023-08-12T17:19:19;4.70;;;2.30;;
